Grande Pointe, Florida
Current Conditions -  °F | °C
As of 10:53 AM on Saturday 25 Oct 2014 (Local Time) from KECP Reporting Station
Clear Clear  
Wind Chill: 72°   Ceiling: Unl
Heat Index: 72°   Visibility: 10mi
Dew Point: 46°   Wind: 9mph
Humidity: 40%   Direction: 10°N
Pressure: 30.07"   Gusts: NA
Location:  30.3525°N, 85.9093°W
Report Text: KECP 251553Z 01008KT 10SM CLR 22/08 A3007 RMK AO2 SLP192 T02220078 $
Loading
Personal Weather Stations






























Interactive Weather Map
Tropical Storm Tracking
New forecast layout! Learn more

10-Day Weather Forecast

Advertisements
Track Severe Weather on mobile